Impacts TAF Board
For situational awareness. Not to be used for flight planning purposes.
IDs:

KSEZ - Sedona Arpt, AZ, US

Issued at 1739 UTC 08 Aug 2020
Updated at 2051 UTC 08 Aug 2020
Potential Impact None Slight Moderate High
Time2035Z 08/21Z 08/22Z 08/23Z 09/00Z 09/01Z 09/02Z 09/03Z 09/04Z 09/05Z 09/06Z 09/07Z 09/08Z 09/09Z>>
Type OBS PRVL PRVL PRVL PRVL PRVL PRVL PRVL PRVL PRVL PRVL PRVL PRVL PRVL
VIS 10 >6 >6 >6 >6 >6 >6 >6 >6 >6 >6 >6 >6 >6
CIG -- -- -- -- -- -- -- -- -- -- -- -- -- --
Cover CLR FEW FEW FEW FEW FEW FEW FEW FEW FEW FEW FEW SKC SKC
FltCat VFR VFR VFR VFR VFR VFR VFR VFR VFR VFR VFR VFR VFR VFR
WX -- -- -- -- -- -- -- -- -- -- -- -- -- --
WDir 180 190 190 190 190 190 VRB VRB VRB VRB VRB VRB 20 20
WSpd 13 9 9 9 9 9 5 5 5 5 5 5 10 10
WGst 21 16 16 16 16 16 -- -- -- -- -- -- -- --
Raw TAF
KSEZ 081739Z 0818/0918 19009G16KT P6SM FEW100
  FM090200 VRB05KT P6SM FEW110
  FM090800 02010KT P6SM SKC
  FM091400 16007KT P6SM SKC


Raw METAR
KSEZ 082035Z AUTO 18013G21KT 140V210 10SM CLR 35/02 A3015 RMK AO2
KSEZ 082015Z AUTO 17016G21KT 10SM CLR 36/04 A3016 RMK AO2
KSEZ 081955Z AUTO 20012G17KT 160V230 10SM CLR 35/03 A3017 RMK AO2
KSEZ 081935Z AUTO 19009G14KT 10SM CLR 35/06 A3018 RMK AO2
KSEZ 081915Z AUTO 22007KT 160V270 10SM CLR 35/06 A3019 RMK AO2
KSEZ 081855Z AUTO 25007G16KT 10SM CLR 34/06 A3019 RMK AO2
KSEZ 081835Z AUTO 16011G15KT 10SM CLR 35/06 A3019 RMK AO2
KSEZ 081815Z AUTO 16006G15KT 10SM CLR 33/05 A3021 RMK AO2
KSEZ 081755Z AUTO 19007KT 10SM CLR 33/05 A3021 RMK AO2
KSEZ 081735Z AUTO 17007KT 10SM CLR 33/07 A3021 RMK AO2

METAR Board
Radar Display
Forecast Discussion
For situational awareness. Not to be used for flight planning purposes.